Terminal Aerodrome Forecast
Issued by NWS Omaha/Valley, NE

Home | Current Version | Previous Version | Text Only | Print | Product List | Glossary On
Versions: 1 2 3 4 5 6 7 8 9 10 11 12 13 14 15 16 17 18
000
FTUS43 KOAX 201120
TAFLNK
TAF
KLNK 201120Z 2012/2112 20010KT P6SM SCT250
     FM201700 22013G21KT P6SM SCT250
     FM202200 22010KT P6SM BKN200
     FM210100 22005KT P6SM SCT250
     FM210700 29005KT P6SM BKN200
     FM211000 34010KT P6SM BKN090=

USA.gov is the U.S. government's official web portal to all federal, state and local government web resources and services.